sensor_id;sensor_type;location;lat;lon;timestamp;P1;durP1;ratioP1;P2;durP2;ratioP2
56631;SDS011;42503;39.928;-75.152;2022-11-13T00:01:40;6.07;;;4.75;;
56631;SDS011;42503;39.928;-75.152;2022-11-13T00:03:41;6.50;;;4.93;;
56631;SDS011;42503;39.928;-75.152;2022-11-13T00:05:43;6.25;;;4.40;;
56631;SDS011;42503;39.928;-75.152;2022-11-13T00:07:44;5.13;;;4.63;;
56631;SDS011;42503;39.928;-75.152;2022-11-13T00:09:46;5.90;;;4.60;;
56631;SDS011;42503;39.928;-75.152;2022-11-13T00:11:47;5.32;;;4.72;;
56631;SDS011;42503;39.928;-75.152;2022-11-13T00:13:49;6.60;;;4.85;;
56631;SDS011;42503;39.928;-75.152;2022-11-13T00:16:00;5.70;;;4.55;;
56631;SDS011;42503;39.928;-75.152;2022-11-13T00:18:06;5.95;;;4.95;;
56631;SDS011;42503;39.928;-75.152;2022-11-13T00:20:07;6.18;;;4.68;;
56631;SDS011;42503;39.928;-75.152;2022-11-13T00:22:11;5.83;;;4.70;;
56631;SDS011;42503;39.928;-75.152;2022-11-13T00:24:12;5.53;;;4.97;;
56631;SDS011;42503;39.928;-75.152;2022-11-13T00:26:16;6.68;;;4.88;;
56631;SDS011;42503;39.928;-75.152;2022-11-13T00:28:19;5.70;;;4.18;;
56631;SDS011;42503;39.928;-75.152;2022-11-13T00:30:21;6.68;;;5.50;;
56631;SDS011;42503;39.928;-75.152;2022-11-13T00:32:22;5.55;;;4.20;;
56631;SDS011;42503;39.928;-75.152;2022-11-13T00:34:23;6.75;;;4.82;;
56631;SDS011;42503;39.928;-75.152;2022-11-13T00:36:25;5.53;;;4.03;;
56631;SDS011;42503;39.928;-75.152;2022-11-13T00:38:28;6.93;;;4.57;;
56631;SDS011;42503;39.928;-75.152;2022-11-13T00:40:32;9.15;;;5.05;;
56631;SDS011;42503;39.928;-75.152;2022-11-13T00:42:33;5.57;;;4.70;;
56631;SDS011;42503;39.928;-75.152;2022-11-13T00:44:34;7.03;;;4.65;;
56631;SDS011;42503;39.928;-75.152;2022-11-13T00:46:36;5.25;;;4.45;;
56631;SDS011;42503;39.928;-75.152;2022-11-13T00:48:37;7.50;;;4.40;;
56631;SDS011;42503;39.928;-75.152;2022-11-13T00:50:38;6.72;;;5.03;;
56631;SDS011;42503;39.928;-75.152;2022-11-13T00:52:42;5.38;;;4.32;;
56631;SDS011;42503;39.928;-75.152;2022-11-13T00:54:43;6.88;;;4.82;;
56631;SDS011;42503;39.928;-75.152;2022-11-13T00:56:45;5.63;;;4.82;;
56631;SDS011;42503;39.928;-75.152;2022-11-13T00:58:46;4.85;;;4.35;;
56631;SDS011;42503;39.928;-75.152;2022-11-13T01:00:48;4.40;;;4.00;;
56631;SDS011;42503;39.928;-75.152;2022-11-13T01:02:52;5.95;;;4.38;;
56631;SDS011;42503;39.928;-75.152;2022-11-13T01:04:53;5.65;;;5.05;;
56631;SDS011;42503;39.928;-75.152;2022-11-13T01:06:54;5.70;;;5.05;;
56631;SDS011;42503;39.928;-75.152;2022-11-13T01:08:58;7.05;;;5.00;;
56631;SDS011;42503;39.928;-75.152;2022-11-13T01:11:11;5.45;;;4.60;;
56631;SDS011;42503;39.928;-75.152;2022-11-13T01:13:14;7.22;;;5.07;;
56631;SDS011;42503;39.928;-75.152;2022-11-13T01:15:16;5.93;;;5.25;;
56631;SDS011;42503;39.928;-75.152;2022-11-13T01:17:17;5.20;;;4.70;;
56631;SDS011;42503;39.928;-75.152;2022-11-13T01:19:18;6.07;;;5.10;;
56631;SDS011;42503;39.928;-75.152;2022-11-13T01:21:21;6.50;;;5.00;;
56631;SDS011;42503;39.928;-75.152;2022-11-13T01:23:26;6.15;;;5.03;;
56631;SDS011;42503;39.928;-75.152;2022-11-13T01:25:28;7.20;;;5.32;;
56631;SDS011;42503;39.928;-75.152;2022-11-13T01:27:30;5.57;;;4.80;;
56631;SDS011;42503;39.928;-75.152;2022-11-13T01:29:32;6.50;;;5.10;;
56631;SDS011;42503;39.928;-75.152;2022-11-13T01:31:35;6.50;;;5.05;;
56631;SDS011;42503;39.928;-75.152;2022-11-13T01:33:36;6.15;;;5.25;;
56631;SDS011;42503;39.928;-75.152;2022-11-13T01:35:41;7.38;;;5.05;;
56631;SDS011;42503;39.928;-75.152;2022-11-13T01:37:42;5.25;;;4.60;;
56631;SDS011;42503;39.928;-75.152;2022-11-13T01:39:43;7.28;;;4.90;;
56631;SDS011;42503;39.928;-75.152;2022-11-13T01:41:45;7.55;;;5.07;;
56631;SDS011;42503;39.928;-75.152;2022-11-13T01:43:46;5.28;;;4.78;;
56631;SDS011;42503;39.928;-75.152;2022-11-13T01:47:58;6.68;;;5.18;;
56631;SDS011;42503;39.928;-75.152;2022-11-13T01:50:00;5.95;;;5.15;;
56631;SDS011;42503;39.928;-75.152;2022-11-13T01:52:03;5.95;;;4.97;;
56631;SDS011;42503;39.928;-75.152;2022-11-13T01:54:16;6.05;;;4.60;;
56631;SDS011;42503;39.928;-75.152;2022-11-13T01:56:22;6.05;;;4.80;;
56631;SDS011;42503;39.928;-75.152;2022-11-13T01:58:23;5.63;;;5.13;;
56631;SDS011;42503;39.928;-75.152;2022-11-13T02:00:24;5.18;;;4.60;;
56631;SDS011;42503;39.928;-75.152;2022-11-13T02:02:26;6.03;;;5.32;;
56631;SDS011;42503;39.928;-75.152;2022-11-13T02:04:27;5.55;;;5.05;;
56631;SDS011;42503;39.928;-75.152;2022-11-13T02:06:33;8.02;;;5.20;;
56631;SDS011;42503;39.928;-75.152;2022-11-13T02:08:38;6.30;;;5.00;;
56631;SDS011;42503;39.928;-75.152;2022-11-13T02:10:39;7.25;;;5.28;;
56631;SDS011;42503;39.928;-75.152;2022-11-13T02:12:45;6.88;;;5.32;;
56631;SDS011;42503;39.928;-75.152;2022-11-13T02:14:51;6.10;;;5.05;;
56631;SDS011;42503;39.928;-75.152;2022-11-13T02:17:00;6.45;;;5.03;;
56631;SDS011;42503;39.928;-75.152;2022-11-13T02:19:09;6.03;;;5.00;;
56631;SDS011;42503;39.928;-75.152;2022-11-13T02:25:57;6.07;;;5.47;;
56631;SDS011;42503;39.928;-75.152;2022-11-13T02:27:58;7.15;;;4.93;;
56631;SDS011;42503;39.928;-75.152;2022-11-13T02:30:17;8.55;;;5.20;;
56631;SDS011;42503;39.928;-75.152;2022-11-13T02:32:23;6.22;;;5.45;;
56631;SDS011;42503;39.928;-75.152;2022-11-13T02:34:25;9.02;;;5.65;;
56631;SDS011;42503;39.928;-75.152;2022-11-13T02:36:26;6.25;;;5.22;;
56631;SDS011;42503;39.928;-75.152;2022-11-13T02:38:31;5.53;;;4.53;;
56631;SDS011;42503;39.928;-75.152;2022-11-13T02:40:33;7.05;;;5.70;;
56631;SDS011;42503;39.928;-75.152;2022-11-13T02:42:38;6.38;;;5.05;;
56631;SDS011;42503;39.928;-75.152;2022-11-13T02:44:40;5.80;;;5.03;;
56631;SDS011;42503;39.928;-75.152;2022-11-13T02:46:41;6.80;;;4.85;;
56631;SDS011;42503;39.928;-75.152;2022-11-13T02:48:42;5.78;;;4.78;;
56631;SDS011;42503;39.928;-75.152;2022-11-13T02:50:44;5.45;;;4.95;;
56631;SDS011;42503;39.928;-75.152;2022-11-13T02:52:45;5.28;;;4.53;;
56631;SDS011;42503;39.928;-75.152;2022-11-13T02:54:49;6.55;;;5.47;;
56631;SDS011;42503;39.928;-75.152;2022-11-13T02:56:53;6.03;;;5.18;;
56631;SDS011;42503;39.928;-75.152;2022-11-13T02:58:55;5.50;;;5.00;;
56631;SDS011;42503;39.928;-75.152;2022-11-13T03:00:57;6.22;;;5.10;;
56631;SDS011;42503;39.928;-75.152;2022-11-13T03:03:00;5.75;;;5.18;;
56631;SDS011;42503;39.928;-75.152;2022-11-13T03:05:01;5.40;;;4.90;;
56631;SDS011;42503;39.928;-75.152;2022-11-13T03:07:09;6.03;;;4.85;;
56631;SDS011;42503;39.928;-75.152;2022-11-13T03:09:13;5.90;;;5.07;;
56631;SDS011;42503;39.928;-75.152;2022-11-13T03:11:17;5.85;;;5.00;;
56631;SDS011;42503;39.928;-75.152;2022-11-13T03:13:19;6.82;;;4.88;;
56631;SDS011;42503;39.928;-75.152;2022-11-13T03:15:20;6.00;;;5.40;;
56631;SDS011;42503;39.928;-75.152;2022-11-13T03:17:21;6.15;;;5.25;;
56631;SDS011;42503;39.928;-75.152;2022-11-13T03:19:23;7.35;;;5.05;;
56631;SDS011;42503;39.928;-75.152;2022-11-13T03:21:24;5.82;;;5.00;;
56631;SDS011;42503;39.928;-75.152;2022-11-13T03:23:25;7.95;;;5.80;;
56631;SDS011;42503;39.928;-75.152;2022-11-13T03:25:28;6.72;;;6.00;;
56631;SDS011;42503;39.928;-75.152;2022-11-13T03:27:30;7.68;;;6.70;;
56631;SDS011;42503;39.928;-75.152;2022-11-13T03:29:32;7.97;;;5.82;;
56631;SDS011;42503;39.928;-75.152;2022-11-13T03:31:33;6.10;;;5.38;;
56631;SDS011;42503;39.928;-75.152;2022-11-13T03:33:35;5.97;;;5.43;;
56631;SDS011;42503;39.928;-75.152;2022-11-13T03:35:36;7.50;;;5.40;;
56631;SDS011;42503;39.928;-75.152;2022-11-13T03:37:37;6.13;;;5.45;;
56631;SDS011;42503;39.928;-75.152;2022-11-13T03:39:39;7.43;;;5.53;;
56631;SDS011;42503;39.928;-75.152;2022-11-13T03:41:40;6.40;;;5.32;;
56631;SDS011;42503;39.928;-75.152;2022-11-13T03:43:41;5.80;;;5.20;;
56631;SDS011;42503;39.928;-75.152;2022-11-13T03:45:43;5.90;;;5.00;;
56631;SDS011;42503;39.928;-75.152;2022-11-13T03:47:47;5.35;;;4.85;;
56631;SDS011;42503;39.928;-75.152;2022-11-13T03:49:48;6.68;;;5.28;;
56631;SDS011;42503;39.928;-75.152;2022-11-13T03:51:52;5.90;;;5.30;;
56631;SDS011;42503;39.928;-75.152;2022-11-13T03:53:56;6.22;;;5.38;;
56631;SDS011;42503;39.928;-75.152;2022-11-13T03:56:00;6.78;;;5.10;;
56631;SDS011;42503;39.928;-75.152;2022-11-13T03:58:01;5.63;;;5.00;;
56631;SDS011;42503;39.928;-75.152;2022-11-13T04:00:03;5.85;;;4.80;;
56631;SDS011;42503;39.928;-75.152;2022-11-13T04:02:05;7.47;;;5.38;;
56631;SDS011;42503;39.928;-75.152;2022-11-13T04:04:07;8.63;;;5.80;;
56631;SDS011;42503;39.928;-75.152;2022-11-13T04:06:08;6.00;;;5.40;;
56631;SDS011;42503;39.928;-75.152;2022-11-13T04:08:10;7.15;;;5.70;;
56631;SDS011;42503;39.928;-75.152;2022-11-13T04:10:11;5.85;;;5.25;;
56631;SDS011;42503;39.928;-75.152;2022-11-13T04:12:13;5.70;;;5.05;;
56631;SDS011;42503;39.928;-75.152;2022-11-13T04:14:14;6.35;;;5.22;;
56631;SDS011;42503;39.928;-75.152;2022-11-13T04:16:16;5.88;;;4.85;;
56631;SDS011;42503;39.928;-75.152;2022-11-13T04:18:17;6.25;;;4.50;;
56631;SDS011;42503;39.928;-75.152;2022-11-13T04:20:21;5.32;;;4.80;;
56631;SDS011;42503;39.928;-75.152;2022-11-13T04:22:22;5.60;;;4.97;;
56631;SDS011;42503;39.928;-75.152;2022-11-13T04:24:24;6.13;;;4.90;;
56631;SDS011;42503;39.928;-75.152;2022-11-13T04:26:25;5.35;;;4.55;;
56631;SDS011;42503;39.928;-75.152;2022-11-13T04:28:26;5.40;;;4.85;;
56631;SDS011;42503;39.928;-75.152;2022-11-13T04:30:28;6.68;;;4.78;;
56631;SDS011;42503;39.928;-75.152;2022-11-13T04:32:29;5.00;;;4.50;;
56631;SDS011;42503;39.928;-75.152;2022-11-13T04:34:31;5.85;;;4.47;;
56631;SDS011;42503;39.928;-75.152;2022-11-13T04:36:33;4.53;;;4.10;;
56631;SDS011;42503;39.928;-75.152;2022-11-13T04:38:37;6.03;;;4.75;;
56631;SDS011;42503;39.928;-75.152;2022-11-13T04:40:38;5.20;;;4.68;;
56631;SDS011;42503;39.928;-75.152;2022-11-13T04:42:40;5.28;;;4.78;;
56631;SDS011;42503;39.928;-75.152;2022-11-13T04:44:50;4.90;;;4.40;;
56631;SDS011;42503;39.928;-75.152;2022-11-13T04:46:51;6.82;;;5.00;;
56631;SDS011;42503;39.928;-75.152;2022-11-13T04:48:53;5.85;;;5.18;;
56631;SDS011;42503;39.928;-75.152;2022-11-13T04:50:54;6.13;;;5.05;;
56631;SDS011;42503;39.928;-75.152;2022-11-13T04:52:55;6.30;;;4.90;;
56631;SDS011;42503;39.928;-75.152;2022-11-13T04:54:56;5.57;;;4.80;;
56631;SDS011;42503;39.928;-75.152;2022-11-13T04:57:00;6.63;;;4.70;;
56631;SDS011;42503;39.928;-75.152;2022-11-13T04:59:02;6.60;;;4.80;;
56631;SDS011;42503;39.928;-75.152;2022-11-13T05:01:03;6.60;;;4.90;;
56631;SDS011;42503;39.928;-75.152;2022-11-13T05:03:04;6.35;;;4.95;;
56631;SDS011;42503;39.928;-75.152;2022-11-13T05:05:08;6.10;;;5.00;;
56631;SDS011;42503;39.928;-75.152;2022-11-13T05:07:10;5.57;;;4.95;;
56631;SDS011;42503;39.928;-75.152;2022-11-13T05:09:11;7.28;;;5.72;;
56631;SDS011;42503;39.928;-75.152;2022-11-13T05:11:13;6.15;;;5.55;;
56631;SDS011;42503;39.928;-75.152;2022-11-13T05:13:14;6.63;;;5.13;;
56631;SDS011;42503;39.928;-75.152;2022-11-13T05:15:16;5.57;;;4.88;;
56631;SDS011;42503;39.928;-75.152;2022-11-13T05:17:17;7.07;;;5.70;;
56631;SDS011;42503;39.928;-75.152;2022-11-13T05:19:22;5.60;;;4.97;;
56631;SDS011;42503;39.928;-75.152;2022-11-13T05:21:24;6.30;;;5.70;;
56631;SDS011;42503;39.928;-75.152;2022-11-13T05:23:25;5.93;;;5.32;;
56631;SDS011;42503;39.928;-75.152;2022-11-13T05:25:29;7.18;;;5.82;;
56631;SDS011;42503;39.928;-75.152;2022-11-13T05:27:31;7.40;;;5.72;;
56631;SDS011;42503;39.928;-75.152;2022-11-13T05:29:32;7.82;;;6.03;;
56631;SDS011;42503;39.928;-75.152;2022-11-13T05:31:33;8.60;;;5.88;;
56631;SDS011;42503;39.928;-75.152;2022-11-13T05:33:35;6.13;;;5.45;;
56631;SDS011;42503;39.928;-75.152;2022-11-13T05:35:38;7.05;;;5.28;;
56631;SDS011;42503;39.928;-75.152;2022-11-13T05:37:39;6.47;;;5.38;;
56631;SDS011;42503;39.928;-75.152;2022-11-13T05:39:41;7.50;;;5.60;;
56631;SDS011;42503;39.928;-75.152;2022-11-13T05:41:42;7.00;;;5.50;;
56631;SDS011;42503;39.928;-75.152;2022-11-13T05:43:43;6.35;;;5.18;;
56631;SDS011;42503;39.928;-75.152;2022-11-13T05:48:01;8.63;;;6.22;;
56631;SDS011;42503;39.928;-75.152;2022-11-13T05:50:02;7.60;;;5.00;;
56631;SDS011;42503;39.928;-75.152;2022-11-13T05:52:04;6.30;;;5.28;;
56631;SDS011;42503;39.928;-75.152;2022-11-13T05:54:05;8.27;;;5.00;;
56631;SDS011;42503;39.928;-75.152;2022-11-13T05:56:14;6.40;;;4.97;;
56631;SDS011;42503;39.928;-75.152;2022-11-13T05:58:19;5.22;;;4.57;;
56631;SDS011;42503;39.928;-75.152;2022-11-13T06:00:21;6.80;;;5.22;;
56631;SDS011;42503;39.928;-75.152;2022-11-13T06:02:25;8.35;;;5.30;;
56631;SDS011;42503;39.928;-75.152;2022-11-13T06:04:29;6.00;;;4.83;;
56631;SDS011;42503;39.928;-75.152;2022-11-13T06:06:30;6.57;;;4.60;;
56631;SDS011;42503;39.928;-75.152;2022-11-13T06:08:32;4.70;;;4.20;;
56631;SDS011;42503;39.928;-75.152;2022-11-13T06:10:33;6.82;;;5.00;;
56631;SDS011;42503;39.928;-75.152;2022-11-13T06:12:37;4.70;;;4.15;;
56631;SDS011;42503;39.928;-75.152;2022-11-13T06:14:39;5.32;;;4.22;;
56631;SDS011;42503;39.928;-75.152;2022-11-13T06:16:43;4.70;;;4.20;;
56631;SDS011;42503;39.928;-75.152;2022-11-13T06:18:44;4.53;;;4.05;;
56631;SDS011;42503;39.928;-75.152;2022-11-13T06:20:47;4.90;;;4.30;;
56631;SDS011;42503;39.928;-75.152;2022-11-13T06:22:50;7.75;;;4.50;;
56631;SDS011;42503;39.928;-75.152;2022-11-13T06:24:52;5.88;;;4.20;;
56631;SDS011;42503;39.928;-75.152;2022-11-13T06:26:53;4.35;;;3.95;;
56631;SDS011;42503;39.928;-75.152;2022-11-13T06:28:54;4.43;;;4.03;;
56631;SDS011;42503;39.928;-75.152;2022-11-13T06:31:00;4.28;;;3.50;;
56631;SDS011;42503;39.928;-75.152;2022-11-13T06:33:03;5.00;;;3.60;;
56631;SDS011;42503;39.928;-75.152;2022-11-13T06:35:04;4.07;;;3.78;;
56631;SDS011;42503;39.928;-75.152;2022-11-13T06:37:05;5.70;;;3.90;;
56631;SDS011;42503;39.928;-75.152;2022-11-13T06:39:07;5.68;;;3.92;;
56631;SDS011;42503;39.928;-75.152;2022-11-13T06:41:10;4.35;;;3.90;;
56631;SDS011;42503;39.928;-75.152;2022-11-13T06:43:12;4.60;;;4.05;;
56631;SDS011;42503;39.928;-75.152;2022-11-13T06:45:14;3.83;;;3.45;;
56631;SDS011;42503;39.928;-75.152;2022-11-13T06:47:15;5.22;;;3.78;;
56631;SDS011;42503;39.928;-75.152;2022-11-13T06:49:16;4.03;;;3.53;;
56631;SDS011;42503;39.928;-75.152;2022-11-13T06:51:18;4.20;;;3.65;;
56631;SDS011;42503;39.928;-75.152;2022-11-13T06:53:27;3.95;;;3.53;;
56631;SDS011;42503;39.928;-75.152;2022-11-13T06:55:28;5.18;;;3.42;;
56631;SDS011;42503;39.928;-75.152;2022-11-13T06:57:30;3.95;;;3.17;;
56631;SDS011;42503;39.928;-75.152;2022-11-13T06:59:31;4.03;;;3.33;;
56631;SDS011;42503;39.928;-75.152;2022-11-13T07:01:32;3.50;;;3.20;;
56631;SDS011;42503;39.928;-75.152;2022-11-13T07:03:33;3.53;;;2.90;;
56631;SDS011;42503;39.928;-75.152;2022-11-13T07:05:35;3.20;;;2.90;;
56631;SDS011;42503;39.928;-75.152;2022-11-13T07:07:40;3.47;;;3.17;;
56631;SDS011;42503;39.928;-75.152;2022-11-13T07:09:50;3.03;;;2.70;;
56631;SDS011;42503;39.928;-75.152;2022-11-13T07:11:51;3.78;;;2.95;;
56631;SDS011;42503;39.928;-75.152;2022-11-13T07:13:55;3.30;;;3.00;;
56631;SDS011;42503;39.928;-75.152;2022-11-13T07:16:00;3.20;;;2.88;;
56631;SDS011;42503;39.928;-75.152;2022-11-13T07:18:05;3.88;;;3.15;;
56631;SDS011;42503;39.928;-75.152;2022-11-13T07:20:07;3.53;;;2.75;;
56631;SDS011;42503;39.928;-75.152;2022-11-13T07:22:09;3.10;;;2.30;;
56631;SDS011;42503;39.928;-75.152;2022-11-13T07:24:10;3.35;;;3.05;;
56631;SDS011;42503;39.928;-75.152;2022-11-13T07:26:11;2.60;;;2.40;;
56631;SDS011;42503;39.928;-75.152;2022-11-13T07:28:13;3.03;;;2.60;;
56631;SDS011;42503;39.928;-75.152;2022-11-13T07:30:14;3.15;;;2.85;;
56631;SDS011;42503;39.928;-75.152;2022-11-13T07:32:16;2.90;;;2.70;;
56631;SDS011;42503;39.928;-75.152;2022-11-13T07:34:17;3.88;;;2.40;;
56631;SDS011;42503;39.928;-75.152;2022-11-13T07:36:19;2.58;;;2.38;;
56631;SDS011;42503;39.928;-75.152;2022-11-13T07:38:20;3.60;;;2.75;;
56631;SDS011;42503;39.928;-75.152;2022-11-13T07:40:21;3.00;;;2.70;;
56631;SDS011;42503;39.928;-75.152;2022-11-13T07:42:23;2.92;;;2.72;;
56631;SDS011;42503;39.928;-75.152;2022-11-13T07:44:24;2.95;;;2.17;;
56631;SDS011;42503;39.928;-75.152;2022-11-13T07:46:25;2.80;;;2.10;;
56631;SDS011;42503;39.928;-75.152;2022-11-13T07:48:27;2.20;;;2.00;;
56631;SDS011;42503;39.928;-75.152;2022-11-13T07:50:33;2.47;;;2.08;;
56631;SDS011;42503;39.928;-75.152;2022-11-13T07:52:36;2.33;;;2.13;;
56631;SDS011;42503;39.928;-75.152;2022-11-13T07:54:58;2.35;;;2.15;;
56631;SDS011;42503;39.928;-75.152;2022-11-13T07:56:59;2.22;;;2.03;;
56631;SDS011;42503;39.928;-75.152;2022-11-13T07:59:00;2.45;;;2.22;;
56631;SDS011;42503;39.928;-75.152;2022-11-13T08:01:02;2.30;;;2.03;;
56631;SDS011;42503;39.928;-75.152;2022-11-13T08:03:10;2.90;;;1.65;;
56631;SDS011;42503;39.928;-75.152;2022-11-13T08:05:13;2.10;;;1.88;;
56631;SDS011;42503;39.928;-75.152;2022-11-13T08:07:15;2.03;;;1.80;;
56631;SDS011;42503;39.928;-75.152;2022-11-13T08:09:16;4.40;;;2.30;;
56631;SDS011;42503;39.928;-75.152;2022-11-13T08:11:20;1.75;;;1.65;;
56631;SDS011;42503;39.928;-75.152;2022-11-13T08:13:21;2.60;;;2.00;;
56631;SDS011;42503;39.928;-75.152;2022-11-13T08:15:23;1.85;;;1.73;;
56631;SDS011;42503;39.928;-75.152;2022-11-13T08:17:27;1.53;;;1.43;;
56631;SDS011;42503;39.928;-75.152;2022-11-13T08:19:28;2.00;;;1.80;;
56631;SDS011;42503;39.928;-75.152;2022-11-13T08:21:29;1.63;;;1.52;;
56631;SDS011;42503;39.928;-75.152;2022-11-13T08:23:31;2.17;;;1.90;;
56631;SDS011;42503;39.928;-75.152;2022-11-13T08:25:35;2.28;;;1.67;;
56631;SDS011;42503;39.928;-75.152;2022-11-13T08:27:39;1.77;;;1.67;;
56631;SDS011;42503;39.928;-75.152;2022-11-13T08:29:41;1.50;;;1.40;;
56631;SDS011;42503;39.928;-75.152;2022-11-13T08:31:45;1.75;;;1.50;;
56631;SDS011;42503;39.928;-75.152;2022-11-13T08:33:49;1.67;;;1.40;;
56631;SDS011;42503;39.928;-75.152;2022-11-13T08:35:51;2.03;;;1.50;;
56631;SDS011;42503;39.928;-75.152;2022-11-13T08:38:05;1.70;;;1.55;;
56631;SDS011;42503;39.928;-75.152;2022-11-13T08:40:08;1.80;;;1.70;;
56631;SDS011;42503;39.928;-75.152;2022-11-13T08:42:10;1.42;;;1.33;;
56631;SDS011;42503;39.928;-75.152;2022-11-13T08:44:14;2.08;;;1.70;;
56631;SDS011;42503;39.928;-75.152;2022-11-13T08:46:18;1.40;;;1.30;;
56631;SDS011;42503;39.928;-75.152;2022-11-13T08:48:19;1.95;;;1.45;;
56631;SDS011;42503;39.928;-75.152;2022-11-13T08:50:21;1.55;;;1.33;;
56631;SDS011;42503;39.928;-75.152;2022-11-13T08:52:22;1.77;;;1.40;;
56631;SDS011;42503;39.928;-75.152;2022-11-13T08:54:29;1.35;;;1.25;;
56631;SDS011;42503;39.928;-75.152;2022-11-13T08:56:30;2.40;;;1.55;;
56631;SDS011;42503;39.928;-75.152;2022-11-13T08:58:31;1.20;;;1.10;;
56631;SDS011;42503;39.928;-75.152;2022-11-13T09:00:32;1.70;;;1.30;;
56631;SDS011;42503;39.928;-75.152;2022-11-13T09:02:34;1.52;;;1.42;;
56631;SDS011;42503;39.928;-75.152;2022-11-13T09:04:35;1.63;;;1.23;;
56631;SDS011;42503;39.928;-75.152;2022-11-13T09:06:39;1.67;;;1.50;;
56631;SDS011;42503;39.928;-75.152;2022-11-13T09:08:41;1.30;;;1.20;;
56631;SDS011;42503;39.928;-75.152;2022-11-13T09:10:42;1.35;;;1.15;;
56631;SDS011;42503;39.928;-75.152;2022-11-13T09:12:44;1.25;;;1.15;;
56631;SDS011;42503;39.928;-75.152;2022-11-13T09:14:48;1.30;;;1.20;;
56631;SDS011;42503;39.928;-75.152;2022-11-13T09:16:50;1.20;;;1.10;;
56631;SDS011;42503;39.928;-75.152;2022-11-13T09:18:53;1.20;;;1.10;;
56631;SDS011;42503;39.928;-75.152;2022-11-13T09:21:01;1.70;;;1.20;;
56631;SDS011;42503;39.928;-75.152;2022-11-13T09:23:05;2.45;;;1.13;;
56631;SDS011;42503;39.928;-75.152;2022-11-13T09:25:07;1.60;;;1.33;;
56631;SDS011;42503;39.928;-75.152;2022-11-13T09:27:09;2.30;;;1.42;;
56631;SDS011;42503;39.928;-75.152;2022-11-13T09:29:10;1.63;;;1.17;;
56631;SDS011;42503;39.928;-75.152;2022-11-13T09:31:12;0.95;;;0.93;;
56631;SDS011;42503;39.928;-75.152;2022-11-13T09:33:13;1.35;;;1.23;;
56631;SDS011;42503;39.928;-75.152;2022-11-13T09:35:15;2.30;;;0.98;;
56631;SDS011;42503;39.928;-75.152;2022-11-13T09:37:16;1.15;;;1.05;;
56631;SDS011;42503;39.928;-75.152;2022-11-13T09:39:21;2.22;;;0.98;;
56631;SDS011;42503;39.928;-75.152;2022-11-13T09:41:25;0.95;;;0.90;;
56631;SDS011;42503;39.928;-75.152;2022-11-13T09:45:36;1.20;;;1.10;;
56631;SDS011;42503;39.928;-75.152;2022-11-13T09:47:43;1.27;;;1.17;;
56631;SDS011;42503;39.928;-75.152;2022-11-13T09:49:48;1.17;;;1.08;;
56631;SDS011;42503;39.928;-75.152;2022-11-13T09:52:13;2.03;;;1.20;;
56631;SDS011;42503;39.928;-75.152;2022-11-13T09:54:21;1.20;;;0.90;;
56631;SDS011;42503;39.928;-75.152;2022-11-13T09:58:48;1.15;;;1.05;;
56631;SDS011;42503;39.928;-75.152;2022-11-13T10:00:54;1.02;;;0.93;;
56631;SDS011;42503;39.928;-75.152;2022-11-13T10:03:11;0.70;;;0.70;;
56631;SDS011;42503;39.928;-75.152;2022-11-13T10:10:28;0.85;;;0.80;;
56631;SDS011;42503;39.928;-75.152;2022-11-13T10:12:49;0.70;;;0.60;;
56631;SDS011;42503;39.928;-75.152;2022-11-13T10:15:02;0.60;;;0.60;;
56631;SDS011;42503;39.928;-75.152;2022-11-13T10:17:13;1.27;;;1.00;;
56631;SDS011;42503;39.928;-75.152;2022-11-13T10:22:04;0.80;;;0.80;;
56631;SDS011;42503;39.928;-75.152;2022-11-13T10:24:24;0.60;;;0.60;;
56631;SDS011;42503;39.928;-75.152;2022-11-13T10:26:35;0.77;;;0.75;;
56631;SDS011;42503;39.928;-75.152;2022-11-13T10:28:39;0.80;;;0.80;;
56631;SDS011;42503;39.928;-75.152;2022-11-13T10:30:41;0.93;;;0.82;;
56631;SDS011;42503;39.928;-75.152;2022-11-13T10:32:43;0.60;;;0.60;;
56631;SDS011;42503;39.928;-75.152;2022-11-13T10:34:49;0.88;;;0.77;;
56631;SDS011;42503;39.928;-75.152;2022-11-13T10:37:29;0.77;;;0.77;;
56631;SDS011;42503;39.928;-75.152;2022-11-13T10:39:46;0.85;;;0.60;;
56631;SDS011;42503;39.928;-75.152;2022-11-13T10:41:49;0.73;;;0.60;;
56631;SDS011;42503;39.928;-75.152;2022-11-13T10:44:00;0.77;;;0.68;;
56631;SDS011;42503;39.928;-75.152;2022-11-13T10:46:04;0.57;;;0.55;;
56631;SDS011;42503;39.928;-75.152;2022-11-13T10:48:21;0.75;;;0.75;;
56631;SDS011;42503;39.928;-75.152;2022-11-13T10:50:27;0.90;;;0.70;;
56631;SDS011;42503;39.928;-75.152;2022-11-13T10:52:30;0.82;;;0.70;;
56631;SDS011;42503;39.928;-75.152;2022-11-13T10:54:31;0.80;;;0.80;;
56631;SDS011;42503;39.928;-75.152;2022-11-13T10:56:35;1.07;;;0.50;;
56631;SDS011;42503;39.928;-75.152;2022-11-13T10:58:37;0.50;;;0.50;;
56631;SDS011;42503;39.928;-75.152;2022-11-13T11:00:41;0.80;;;0.80;;
56631;SDS011;42503;39.928;-75.152;2022-11-13T11:02:50;0.63;;;0.63;;
56631;SDS011;42503;39.928;-75.152;2022-11-13T11:07:19;0.63;;;0.63;;
56631;SDS011;42503;39.928;-75.152;2022-11-13T11:09:24;0.60;;;0.60;;
56631;SDS011;42503;39.928;-75.152;2022-11-13T11:11:30;0.73;;;0.73;;
56631;SDS011;42503;39.928;-75.152;2022-11-13T11:13:50;0.95;;;0.70;;
56631;SDS011;42503;39.928;-75.152;2022-11-13T11:15:55;0.50;;;0.50;;
56631;SDS011;42503;39.928;-75.152;2022-11-13T11:18:00;0.60;;;0.60;;
56631;SDS011;42503;39.928;-75.152;2022-11-13T11:20:18;0.60;;;0.60;;
56631;SDS011;42503;39.928;-75.152;2022-11-13T11:22:27;0.82;;;0.60;;
56631;SDS011;42503;39.928;-75.152;2022-11-13T11:24:34;1.75;;;0.47;;
56631;SDS011;42503;39.928;-75.152;2022-11-13T11:26:53;0.88;;;0.60;;
56631;SDS011;42503;39.928;-75.152;2022-11-13T11:29:05;1.02;;;0.70;;
56631;SDS011;42503;39.928;-75.152;2022-11-13T11:31:14;0.82;;;0.60;;
56631;SDS011;42503;39.928;-75.152;2022-11-13T11:33:47;0.80;;;0.50;;
56631;SDS011;42503;39.928;-75.152;2022-11-13T11:36:40;1.35;;;0.88;;
56631;SDS011;42503;39.928;-75.152;2022-11-13T11:41:08;0.95;;;0.50;;
56631;SDS011;42503;39.928;-75.152;2022-11-13T11:43:20;1.10;;;0.60;;
56631;SDS011;42503;39.928;-75.152;2022-11-13T11:45:49;0.63;;;0.63;;
56631;SDS011;42503;39.928;-75.152;2022-11-13T11:47:51;0.85;;;0.50;;
56631;SDS011;42503;39.928;-75.152;2022-11-13T11:49:53;1.15;;;0.60;;
56631;SDS011;42503;39.928;-75.152;2022-11-13T11:52:18;0.95;;;0.68;;
56631;SDS011;42503;39.928;-75.152;2022-11-13T11:54:42;0.70;;;0.70;;
56631;SDS011;42503;39.928;-75.152;2022-11-13T11:57:02;1.00;;;0.60;;
56631;SDS011;42503;39.928;-75.152;2022-11-13T12:06:45;0.60;;;0.60;;
56631;SDS011;42503;39.928;-75.152;2022-11-13T12:11:45;0.55;;;0.55;;
56631;SDS011;42503;39.928;-75.152;2022-11-13T12:17:01;0.68;;;0.57;;
56631;SDS011;42503;39.928;-75.152;2022-11-13T12:27:05;0.43;;;0.43;;
56631;SDS011;42503;39.928;-75.152;2022-11-13T12:35:58;2.33;;;0.60;;
56631;SDS011;42503;39.928;-75.152;2022-11-13T12:38:04;4.10;;;0.57;;
56631;SDS011;42503;39.928;-75.152;2022-11-13T12:47:16;2.08;;;0.70;;
56631;SDS011;42503;39.928;-75.152;2022-11-13T12:51:22;11.07;;;1.13;;
56631;SDS011;42503;39.928;-75.152;2022-11-13T12:53:30;10.88;;;1.10;;
56631;SDS011;42503;39.928;-75.152;2022-11-13T12:56:12;4.95;;;0.95;;
56631;SDS011;42503;39.928;-75.152;2022-11-13T12:58:24;1.67;;;0.80;;
56631;SDS011;42503;39.928;-75.152;2022-11-13T13:00:27;3.30;;;0.60;;
56631;SDS011;42503;39.928;-75.152;2022-11-13T13:12:01;1.20;;;0.60;;
56631;SDS011;42503;39.928;-75.152;2022-11-13T13:16:07;1.15;;;0.47;;
56631;SDS011;42503;39.928;-75.152;2022-11-13T13:18:34;0.77;;;0.50;;
56631;SDS011;42503;39.928;-75.152;2022-11-13T13:20:36;2.13;;;0.70;;
56631;SDS011;42503;39.928;-75.152;2022-11-13T13:22:53;2.70;;;0.63;;